Time;durP1;ratioP1;P1;durP2;ratioP2;P2;SDS_P1;SDS_P2;PMS_P1;PMS_P2;Temp;Humidity;BMP_temperature;BMP_pressure;BME280_temperature;BME280_humidity;BME280_pressure;Samples;Min_cycle;Max_cycle;Signal;HPM_P1;HPM_P2
2021/08/18 00:01:20;;;;;;;12.75;4.25;;;15.80;99.90;;;;;;4991956;28;20053;-62
2021/08/18 00:03:46;;;;;;;11.27;4.10;;;15.80;99.90;;;;;;4992303;28;20026;-61
2021/08/18 00:06:12;;;;;;;11.15;4.07;;;15.80;99.90;;;;;;4992293;28;20117;-61
2021/08/18 00:08:41;;;;;;;16.27;4.30;;;15.80;99.90;;;;;;4992869;28;20120;-61
2021/08/18 00:11:07;;;;;;;15.40;4.72;;;15.80;99.90;;;;;;4992136;28;20058;-61
2021/08/18 00:13:34;;;;;;;15.18;4.88;;;15.80;99.90;;;;;;4992905;28;20097;-62
2021/08/18 00:16:00;;;;;;;13.63;4.38;;;15.80;99.90;;;;;;4990262;28;20035;-61
2021/08/18 00:18:26;;;;;;;13.27;4.88;;;15.80;99.90;;;;;;4993407;28;20122;-61
2021/08/18 00:20:53;;;;;;;13.60;4.38;;;15.70;99.90;;;;;;4991147;28;20363;-61
2021/08/18 00:23:18;;;;;;;13.18;5.68;;;15.70;99.90;;;;;;4993487;28;20022;-61
2021/08/18 00:25:44;;;;;;;17.42;5.50;;;15.60;99.90;;;;;;4990763;28;20030;-61
2021/08/18 00:28:10;;;;;;;11.85;4.75;;;15.60;99.90;;;;;;4991983;28;20037;-61
2021/08/18 00:30:36;;;;;;;10.45;4.70;;;15.60;99.90;;;;;;4990897;28;20235;-61
2021/08/18 00:33:02;;;;;;;12.52;4.85;;;15.60;99.90;;;;;;4990243;28;20231;-61
2021/08/18 00:35:28;;;;;;;10.55;4.90;;;15.50;99.90;;;;;;4992521;28;20030;-61
2021/08/18 00:37:54;;;;;;;10.68;4.65;;;15.50;99.90;;;;;;4992119;28;20305;-61
2021/08/18 00:40:20;;;;;;;13.90;4.28;;;15.50;99.90;;;;;;4990929;28;20391;-61
2021/08/18 00:42:47;;;;;;;11.60;4.35;;;15.50;99.90;;;;;;4990483;28;20046;-61
2021/08/18 00:45:14;;;;;;;12.05;4.70;;;15.50;99.90;;;;;;4993127;28;20372;-61
2021/08/18 00:47:51;;;;;;;12.77;4.18;;;15.40;99.90;;;;;;4992612;28;20045;-61
2021/08/18 00:50:25;;;;;;;15.95;4.32;;;15.40;99.90;;;;;;4992177;28;20046;-61
2021/08/18 00:52:53;;;;;;;12.48;4.00;;;15.40;99.90;;;;;;4992470;28;20336;-61
2021/08/18 00:55:21;;;;;;;9.95;4.30;;;15.40;99.90;;;;;;4991970;28;20026;-61
2021/08/18 00:57:47;;;;;;;13.23;4.43;;;15.30;99.90;;;;;;4992217;28;20057;-61
2021/08/18 01:00:16;;;;;;;13.93;4.65;;;15.30;99.90;;;;;;4991520;28;20036;-61
2021/08/18 01:02:46;;;;;;;12.98;4.63;;;15.30;99.90;;;;;;4993538;28;20203;-61
2021/08/18 01:05:18;;;;;;;13.18;4.47;;;15.30;99.90;;;;;;4991379;28;20036;-61
2021/08/18 01:07:49;;;;;;;14.07;5.18;;;15.30;99.90;;;;;;4991752;28;20484;-61
2021/08/18 01:10:18;;;;;;;10.88;3.90;;;15.20;99.90;;;;;;4990427;28;20073;-61
2021/08/18 01:12:44;;;;;;;12.55;4.55;;;15.20;99.90;;;;;;4992462;28;20034;-61
2021/08/18 01:15:13;;;;;;;12.02;4.38;;;15.20;99.90;;;;;;4990769;28;20324;-61
2021/08/18 01:17:42;;;;;;;13.52;4.95;;;15.20;99.90;;;;;;4992194;28;20049;-61
2021/08/18 01:20:10;;;;;;;11.65;3.58;;;15.30;99.90;;;;;;4992530;28;20041;-61
2021/08/18 01:22:36;;;;;;;14.63;4.53;;;15.30;99.90;;;;;;4991576;28;20149;-60
2021/08/18 01:25:06;;;;;;;10.90;4.85;;;15.30;99.90;;;;;;4989946;28;20030;-61
2021/08/18 01:27:34;;;;;;;12.40;4.68;;;15.30;99.90;;;;;;4991024;28;20038;-61
2021/08/18 01:30:00;;;;;;;16.27;4.38;;;15.30;99.90;;;;;;4990893;28;20097;-61
2021/08/18 01:32:26;;;;;;;10.45;3.83;;;15.20;99.90;;;;;;4991419;28;20034;-61
2021/08/18 01:34:51;;;;;;;10.88;4.07;;;15.20;99.90;;;;;;4992702;28;20034;-61
2021/08/18 01:37:17;;;;;;;9.77;3.80;;;15.20;99.90;;;;;;4990455;28;20365;-61
2021/08/18 01:39:43;;;;;;;11.55;4.25;;;15.20;99.90;;;;;;4992891;28;20030;-61
2021/08/18 01:42:09;;;;;;;11.48;4.00;;;15.20;99.90;;;;;;4991890;28;20201;-61
2021/08/18 01:44:35;;;;;;;8.57;3.53;;;15.20;99.90;;;;;;4987709;28;20401;-61
2021/08/18 01:47:00;;;;;;;13.38;4.18;;;15.10;99.90;;;;;;4992033;28;20088;-61
2021/08/18 01:49:27;;;;;;;12.93;4.40;;;15.10;99.90;;;;;;4991803;28;20332;-61
2021/08/18 01:51:56;;;;;;;15.05;4.38;;;15.10;99.90;;;;;;4991597;28;20030;-61
2021/08/18 01:54:21;;;;;;;14.52;5.10;;;15.10;99.90;;;;;;5007433;28;20359;-61
2021/08/18 01:56:47;;;;;;;14.40;4.97;;;15.10;99.90;;;;;;4990952;28;20193;-61
2021/08/18 01:59:13;;;;;;;11.85;4.15;;;15.10;99.90;;;;;;4992163;28;20244;-61
2021/08/18 02:01:39;;;;;;;13.85;4.88;;;15.10;99.90;;;;;;4991383;28;20034;-61
2021/08/18 02:04:04;;;;;;;11.95;4.55;;;15.10;99.90;;;;;;4991300;28;20026;-61
2021/08/18 02:06:32;;;;;;;11.65;4.18;;;15.10;99.90;;;;;;4991676;28;20225;-61
2021/08/18 02:08:58;;;;;;;9.13;3.90;;;15.10;99.90;;;;;;4992154;28;20093;-61
2021/08/18 02:11:24;;;;;;;10.57;3.95;;;15.10;99.90;;;;;;4989770;28;20397;-61
2021/08/18 02:13:50;;;;;;;9.98;4.28;;;15.10;99.90;;;;;;4990446;28;20106;-60
2021/08/18 02:16:16;;;;;;;9.45;4.10;;;15.10;99.90;;;;;;4990676;28;20030;-60
2021/08/18 02:18:42;;;;;;;13.93;4.63;;;15.10;99.90;;;;;;4992442;28;20117;-60
2021/08/18 02:21:08;;;;;;;11.13;4.03;;;15.10;99.90;;;;;;4994674;28;20034;-61
2021/08/18 02:23:34;;;;;;;15.18;5.53;;;15.10;99.90;;;;;;4994977;28;20074;-60
2021/08/18 02:26:00;;;;;;;11.02;5.03;;;15.10;99.90;;;;;;4996108;28;20420;-61
2021/08/18 02:28:26;;;;;;;18.85;5.35;;;15.20;99.90;;;;;;4993331;28;20098;-61
2021/08/18 02:30:52;;;;;;;13.93;4.78;;;15.20;99.90;;;;;;4995655;28;20045;-61
2021/08/18 02:33:17;;;;;;;7.38;3.78;;;15.10;99.90;;;;;;4994574;28;20065;-61
2021/08/18 02:35:43;;;;;;;12.55;3.83;;;15.20;99.90;;;;;;4995514;28;20273;-60
2021/08/18 02:38:09;;;;;;;11.43;4.63;;;15.10;99.90;;;;;;4995295;28;20355;-61
2021/08/18 02:40:36;;;;;;;12.63;4.03;;;15.10;99.90;;;;;;4995269;28;20239;-61
2021/08/18 02:43:02;;;;;;;9.50;3.40;;;15.10;99.90;;;;;;4991098;28;20034;-61
2021/08/18 02:45:30;;;;;;;9.43;3.78;;;15.20;99.90;;;;;;4994577;28;20053;-61
2021/08/18 02:47:56;;;;;;;8.52;3.28;;;15.20;99.90;;;;;;4993737;28;20320;-61
2021/08/18 02:50:25;;;;;;;8.63;2.97;;;15.10;99.90;;;;;;4994765;28;20049;-61
2021/08/18 02:52:51;;;;;;;12.80;4.25;;;15.20;99.90;;;;;;4993484;28;20026;-61
2021/08/18 02:55:17;;;;;;;10.40;3.10;;;15.20;99.90;;;;;;4994050;28;20030;-61
2021/08/18 02:57:43;;;;;;;6.30;2.83;;;15.30;99.90;;;;;;4992877;28;20221;-61
2021/08/18 03:00:09;;;;;;;10.40;3.67;;;15.30;99.90;;;;;;4992121;28;20073;-61
2021/08/18 03:02:35;;;;;;;12.27;3.15;;;15.30;99.90;;;;;;4992208;28;20022;-61
2021/08/18 03:05:02;;;;;;;13.77;3.70;;;15.30;99.90;;;;;;4993888;28;20406;-61
2021/08/18 03:07:27;;;;;;;15.40;4.07;;;15.40;99.90;;;;;;4992139;28;20056;-61
2021/08/18 03:09:53;;;;;;;16.58;4.25;;;15.40;99.90;;;;;;4994185;28;20363;-61
2021/08/18 03:12:19;;;;;;;9.60;3.40;;;15.50;99.90;;;;;;4992638;28;20038;-61
2021/08/18 03:14:45;;;;;;;8.85;3.78;;;15.50;99.90;;;;;;4992854;28;20319;-61
2021/08/18 03:17:12;;;;;;;8.35;3.40;;;15.50;99.90;;;;;;4993200;28;20028;-61
2021/08/18 03:19:39;;;;;;;9.38;3.35;;;15.50;99.90;;;;;;4993939;28;20038;-61
2021/08/18 03:22:05;;;;;;;10.25;3.42;;;15.50;99.90;;;;;;4993106;28;20350;-61
2021/08/18 03:24:30;;;;;;;13.15;3.55;;;15.60;99.90;;;;;;4991671;28;20034;-61
2021/08/18 03:26:56;;;;;;;7.80;2.53;;;15.60;99.90;;;;;;4993032;28;20123;-61
2021/08/18 03:29:22;;;;;;;10.68;2.78;;;15.60;99.90;;;;;;4991454;28;20065;-61
2021/08/18 03:31:48;;;;;;;7.10;2.03;;;15.60;99.90;;;;;;4991567;28;20030;-62
2021/08/18 03:34:13;;;;;;;12.75;2.33;;;15.60;99.90;;;;;;4993719;28;20097;-61
2021/08/18 03:36:39;;;;;;;9.65;2.88;;;15.60;99.90;;;;;;4992218;28;20038;-61
2021/08/18 03:39:05;;;;;;;7.15;2.92;;;15.60;99.90;;;;;;4992289;28;20081;-61
2021/08/18 03:41:31;;;;;;;9.65;2.50;;;15.60;99.90;;;;;;4992658;28;20042;-61
2021/08/18 03:43:56;;;;;;;11.15;2.80;;;15.60;99.90;;;;;;4992650;28;20034;-61
2021/08/18 03:46:22;;;;;;;10.57;2.83;;;15.60;99.90;;;;;;4992022;28;20022;-61
2021/08/18 03:48:48;;;;;;;9.88;3.20;;;15.60;99.90;;;;;;4991297;28;20034;-61
2021/08/18 03:51:14;;;;;;;8.73;2.97;;;15.60;99.90;;;;;;4991738;28;20307;-62
2021/08/18 03:53:39;;;;;;;8.98;3.53;;;15.60;99.90;;;;;;4987422;28;20407;-61
2021/08/18 03:56:05;;;;;;;9.75;2.75;;;15.60;99.90;;;;;;4990541;28;20038;-62
2021/08/18 03:58:31;;;;;;;9.70;3.70;;;15.60;99.90;;;;;;4989708;28;20349;-61
2021/08/18 04:00:57;;;;;;;8.35;3.80;;;15.60;99.90;;;;;;4992033;28;20351;-61
2021/08/18 04:03:23;;;;;;;12.98;3.47;;;15.60;99.90;;;;;;4989570;28;20037;-61
2021/08/18 04:05:48;;;;;;;13.30;4.57;;;15.60;99.90;;;;;;4989990;28;20117;-62
2021/08/18 04:08:14;;;;;;;12.82;3.85;;;15.60;99.90;;;;;;4988590;28;20026;-64
2021/08/18 04:10:40;;;;;;;12.65;4.15;;;15.70;99.90;;;;;;4987915;28;20052;-76
2021/08/18 04:13:06;;;;;;;16.05;4.55;;;15.70;99.90;;;;;;4989652;28;20057;-84
2021/08/18 04:15:40;;;;;;;13.55;4.47;;;15.70;99.90;;;;;;4990368;28;20046;-74
2021/08/18 04:18:07;;;;;;;16.50;4.82;;;15.80;99.90;;;;;;4992888;28;20018;-74
2021/08/18 04:20:34;;;;;;;13.30;5.30;;;15.70;99.90;;;;;;4991910;28;20029;-74
2021/08/18 04:23:01;;;;;;;13.30;4.22;;;15.70;99.90;;;;;;4990746;28;20037;-74
2021/08/18 04:25:27;;;;;;;13.25;4.72;;;15.80;99.90;;;;;;4990711;28;20389;-73
2021/08/18 04:27:53;;;;;;;14.25;5.05;;;15.80;99.90;;;;;;4991039;28;20220;-74
2021/08/18 04:30:20;;;;;;;13.23;5.43;;;15.80;99.90;;;;;;4991009;28;20034;-74
2021/08/18 04:32:46;;;;;;;12.82;4.63;;;15.80;99.90;;;;;;4991951;28;20037;-74
2021/08/18 04:35:13;;;;;;;13.65;4.45;;;15.80;99.90;;;;;;4990797;28;20217;-74
2021/08/18 04:37:39;;;;;;;18.50;5.28;;;15.80;99.90;;;;;;4991467;28;20115;-74
2021/08/18 04:40:07;;;;;;;11.75;4.38;;;15.80;99.90;;;;;;4991994;28;20034;-74
2021/08/18 04:42:39;;;;;;;11.65;4.40;;;15.90;99.90;;;;;;4989159;28;20030;-73
2021/08/18 04:45:07;;;;;;;9.23;3.50;;;15.90;99.90;;;;;;4989595;28;20059;-74
2021/08/18 04:47:34;;;;;;;16.45;4.32;;;15.90;99.90;;;;;;4988533;28;20026;-74
2021/08/18 04:49:59;;;;;;;11.73;4.50;;;15.90;99.90;;;;;;4987586;28;20042;-72
2021/08/18 04:52:26;;;;;;;14.75;5.13;;;15.90;99.90;;;;;;4989840;28;20038;-74
2021/08/18 04:54:52;;;;;;;15.43;4.70;;;15.90;99.90;;;;;;4989159;28;20038;-75
2021/08/18 04:57:19;;;;;;;12.90;4.07;;;15.90;99.90;;;;;;4990052;28;20304;-72
2021/08/18 04:59:44;;;;;;;16.02;4.72;;;15.90;99.90;;;;;;4989877;28;20066;-72
2021/08/18 05:02:10;;;;;;;13.00;4.15;;;15.90;99.90;;;;;;4992149;28;20034;-72
2021/08/18 05:04:36;;;;;;;12.95;4.22;;;15.90;99.90;;;;;;4984264;28;20300;-72
2021/08/18 05:07:03;;;;;;;17.88;4.95;;;15.90;99.90;;;;;;4992406;28;20026;-72
2021/08/18 05:09:29;;;;;;;13.13;4.63;;;16.00;99.90;;;;;;4991445;28;20245;-72
2021/08/18 05:11:56;;;;;;;10.35;4.25;;;16.00;99.90;;;;;;4989115;28;20216;-72
2021/08/18 05:14:22;;;;;;;12.20;4.65;;;16.00;99.90;;;;;;4991741;28;20069;-72
2021/08/18 05:16:48;;;;;;;14.27;4.93;;;16.00;99.90;;;;;;4989881;28;20069;-75
2021/08/18 05:19:14;;;;;;;10.32;4.18;;;16.00;99.90;;;;;;4991361;28;20090;-73
2021/08/18 05:21:40;;;;;;;12.10;3.67;;;16.00;99.90;;;;;;4991107;28;20324;-73
2021/08/18 05:24:06;;;;;;;10.88;3.88;;;16.00;99.90;;;;;;4989761;28;20022;-73
2021/08/18 05:26:33;;;;;;;12.30;3.63;;;16.00;99.90;;;;;;4989460;28;20593;-75
2021/08/18 05:28:58;;;;;;;12.50;3.58;;;16.00;99.90;;;;;;4989631;28;20073;-74
2021/08/18 05:31:24;;;;;;;12.45;3.30;;;15.90;99.90;;;;;;4989085;28;20351;-74
2021/08/18 05:33:50;;;;;;;6.43;2.80;;;15.80;99.90;;;;;;4990894;28;20034;-74
2021/08/18 05:36:17;;;;;;;11.27;2.97;;;15.80;99.90;;;;;;4991122;28;20117;-75
2021/08/18 05:38:43;;;;;;;7.93;2.33;;;15.70;99.90;;;;;;4991158;28;20030;-75
2021/08/18 05:41:09;;;;;;;9.27;2.15;;;15.60;99.90;;;;;;4992334;28;20291;-75
2021/08/18 05:43:35;;;;;;;10.75;2.97;;;15.50;99.90;;;;;;4991312;28;20321;-74
2021/08/18 05:46:01;;;;;;;5.85;1.90;;;15.40;99.90;;;;;;4990908;28;20271;-75
2021/08/18 05:48:27;;;;;;;5.35;1.90;;;15.30;99.90;;;;;;4989000;28;20045;-75
2021/08/18 05:50:53;;;;;;;6.07;1.95;;;15.20;99.90;;;;;;4992318;28;20045;-74
2021/08/18 05:53:18;;;;;;;6.82;1.80;;;15.20;99.90;;;;;;4990929;28;20022;-74
2021/08/18 05:55:45;;;;;;;8.18;1.50;;;15.20;99.90;;;;;;4996998;28;20034;-75
2021/08/18 05:58:11;;;;;;;8.15;1.77;;;15.30;99.90;;;;;;4998037;28;20094;-72
2021/08/18 06:00:37;;;;;;;4.97;1.20;;;15.30;99.90;;;;;;4998692;28;20031;-73
2021/08/18 06:03:03;;;;;;;6.32;1.80;;;15.40;99.90;;;;;;4995489;28;20335;-72
2021/08/18 06:05:30;;;;;;;4.05;1.10;;;15.40;99.90;;;;;;4998537;28;20053;-72
2021/08/18 06:07:56;;;;;;;7.50;1.60;;;15.50;99.90;;;;;;4997950;28;20033;-72
2021/08/18 06:10:22;;;;;;;8.27;1.40;;;15.60;99.90;;;;;;4998367;28;20046;-74
2021/08/18 06:12:48;;;;;;;5.07;1.52;;;15.50;99.90;;;;;;4998314;28;20064;-73
2021/08/18 06:15:14;;;;;;;5.82;1.92;;;15.50;99.90;;;;;;4997848;28;20068;-73
2021/08/18 06:17:40;;;;;;;6.57;1.48;;;15.40;99.90;;;;;;4998273;28;20096;-74
2021/08/18 06:20:07;;;;;;;4.63;1.00;;;15.40;99.90;;;;;;4998316;28;20041;-74
2021/08/18 06:22:33;;;;;;;4.65;1.10;;;15.40;99.90;;;;;;4998125;28;20106;-74
2021/08/18 06:25:02;;;;;;;3.67;0.90;;;15.40;99.90;;;;;;4997957;28;20050;-74
2021/08/18 06:27:30;;;;;;;7.10;1.10;;;15.50;99.90;;;;;;4998200;28;20069;-75
2021/08/18 06:29:56;;;;;;;2.78;1.10;;;15.50;99.90;;;;;;4997495;28;20468;-74
2021/08/18 06:32:22;;;;;;;6.22;1.25;;;15.50;99.90;;;;;;4997853;28;20022;-74
2021/08/18 06:34:49;;;;;;;6.10;1.58;;;15.50;99.90;;;;;;4998282;28;20176;-74
2021/08/18 06:37:14;;;;;;;9.13;2.05;;;15.50;99.90;;;;;;4997789;28;20026;-74
2021/08/18 06:39:40;;;;;;;8.52;2.47;;;15.50;99.90;;;;;;4998175;28;20026;-72
2021/08/18 06:42:07;;;;;;;11.20;2.35;;;15.50;99.90;;;;;;4996488;28;20057;-73
2021/08/18 06:44:32;;;;;;;11.25;3.00;;;15.50;99.90;;;;;;4997882;28;20038;-73
2021/08/18 06:46:58;;;;;;;5.72;2.05;;;15.50;99.90;;;;;;4996132;28;20064;-74
2021/08/18 06:49:24;;;;;;;13.05;3.22;;;15.40;99.90;;;;;;4995669;28;20330;-73
2021/08/18 06:51:50;;;;;;;11.02;2.65;;;15.40;99.90;;;;;;4996280;28;20057;-73
2021/08/18 06:54:16;;;;;;;11.13;2.60;;;15.40;99.90;;;;;;4995334;28;20048;-71
2021/08/18 06:56:42;;;;;;;15.60;3.33;;;15.40;99.90;;;;;;4995971;28;20018;-74
2021/08/18 06:59:08;;;;;;;10.05;2.55;;;15.50;99.90;;;;;;4995408;28;20022;-73
2021/08/18 07:01:33;;;;;;;7.45;2.00;;;15.50;99.90;;;;;;4997115;28;20054;-74
2021/08/18 07:04:01;;;;;;;6.70;1.65;;;15.50;99.90;;;;;;4996302;28;20419;-74
2021/08/18 07:06:27;;;;;;;5.93;2.03;;;15.40;99.90;;;;;;4995307;28;20033;-73
2021/08/18 07:08:53;;;;;;;4.57;1.63;;;15.20;99.90;;;;;;4994272;28;20030;-75
2021/08/18 07:11:19;;;;;;;5.35;1.88;;;15.20;99.90;;;;;;4992791;28;20301;-74
2021/08/18 07:13:45;;;;;;;4.25;1.40;;;15.20;99.90;;;;;;4993801;28;20033;-75
2021/08/18 07:16:11;;;;;;;5.70;1.25;;;15.20;99.90;;;;;;4994193;28;20034;-75
2021/08/18 07:18:36;;;;;;;5.95;1.65;;;15.30;99.90;;;;;;4992983;28;20026;-75
2021/08/18 07:21:02;;;;;;;4.97;1.60;;;15.30;99.90;;;;;;4992766;28;20026;-75
2021/08/18 07:23:28;;;;;;;6.43;1.80;;;15.20;99.90;;;;;;4993870;28;20057;-75
2021/08/18 07:25:54;;;;;;;7.78;1.73;;;15.20;99.90;;;;;;4994372;28;20022;-74
2021/08/18 07:28:20;;;;;;;9.10;1.73;;;15.20;99.90;;;;;;4993185;28;20034;-74
2021/08/18 07:30:45;;;;;;;6.40;1.70;;;15.20;99.90;;;;;;4992967;28;20065;-75
2021/08/18 07:33:11;;;;;;;8.88;1.85;;;15.20;99.90;;;;;;4994239;28;20076;-75
2021/08/18 07:35:37;;;;;;;9.50;1.67;;;15.30;99.90;;;;;;4993684;28;20057;-74
2021/08/18 07:38:03;;;;;;;3.38;1.58;;;15.30;99.90;;;;;;4992646;28;20026;-74
2021/08/18 07:40:29;;;;;;;6.20;1.60;;;15.40;99.90;;;;;;4993909;28;20085;-73
2021/08/18 07:42:56;;;;;;;6.65;2.08;;;15.50;99.90;;;;;;4993914;28;20025;-74
2021/08/18 07:45:27;;;;;;;5.50;1.58;;;15.60;99.90;;;;;;4991665;28;20280;-72
2021/08/18 07:47:53;;;;;;;10.00;1.98;;;15.70;99.90;;;;;;4993545;28;20124;-71
2021/08/18 07:50:19;;;;;;;8.98;1.92;;;15.80;99.90;;;;;;4994220;28;20116;-72
2021/08/18 07:52:45;;;;;;;4.75;1.92;;;15.90;99.90;;;;;;4994172;28;20029;-74
2021/08/18 07:55:11;;;;;;;8.80;1.70;;;15.90;99.90;;;;;;4992293;28;20034;-74
2021/08/18 07:57:37;;;;;;;7.07;2.10;;;15.80;99.90;;;;;;4992224;28;20030;-74
2021/08/18 08:00:05;;;;;;;9.50;1.88;;;15.90;99.90;;;;;;4992773;28;20030;-75
2021/08/18 08:02:32;;;;;;;10.90;2.25;;;15.90;99.90;;;;;;4990843;28;20037;-72
2021/08/18 08:04:57;;;;;;;5.85;1.83;;;16.00;99.90;;;;;;4991813;28;20205;-72
2021/08/18 08:07:24;;;;;;;10.65;2.05;;;16.20;99.90;;;;;;4993561;28;20320;-72
2021/08/18 08:09:50;;;;;;;10.70;1.45;;;16.40;99.90;;;;;;4993586;28;20057;-74
2021/08/18 08:12:17;;;;;;;6.28;1.08;;;16.30;99.90;;;;;;4993257;28;20051;-73
2021/08/18 08:14:43;;;;;;;6.57;1.33;;;16.10;99.90;;;;;;4992724;28;20457;-73
2021/08/18 08:17:08;;;;;;;4.85;1.17;;;15.90;99.90;;;;;;4991372;28;20030;-73
2021/08/18 08:19:34;;;;;;;9.10;1.83;;;15.90;99.90;;;;;;4991976;28;20169;-72
2021/08/18 08:22:00;;;;;;;10.73;2.20;;;15.90;99.90;;;;;;4992770;28;20264;-72
2021/08/18 08:24:26;;;;;;;8.55;2.13;;;16.00;99.90;;;;;;4993512;28;20352;-72
2021/08/18 08:26:52;;;;;;;6.60;1.77;;;16.10;99.90;;;;;;4993701;28;20515;-73
2021/08/18 08:29:17;;;;;;;9.90;2.08;;;16.20;99.90;;;;;;4992843;28;20354;-75
2021/08/18 08:31:44;;;;;;;4.50;1.17;;;16.30;99.90;;;;;;4993615;28;20096;-73
2021/08/18 08:34:10;;;;;;;8.23;1.88;;;16.80;99.90;;;;;;4993170;28;20173;-72
2021/08/18 08:36:36;;;;;;;8.30;1.55;;;17.20;99.90;;;;;;4993205;28;20030;-72
2021/08/18 08:39:02;;;;;;;3.97;1.60;;;17.40;99.90;;;;;;4991611;28;20029;-73
2021/08/18 08:41:31;;;;;;;5.22;1.38;;;17.40;99.90;;;;;;4991967;28;20429;-72
2021/08/18 08:43:58;;;;;;;10.57;1.67;;;17.80;99.90;;;;;;4992990;28;20019;-74
2021/08/18 08:46:24;;;;;;;6.00;1.52;;;18.20;99.90;;;;;;4992804;28;20026;-72
2021/08/18 08:48:50;;;;;;;5.97;1.20;;;18.10;99.90;;;;;;4991624;28;20379;-72
2021/08/18 08:51:16;;;;;;;5.00;1.48;;;17.80;99.90;;;;;;4992236;28;20402;-72
2021/08/18 08:53:42;;;;;;;6.80;1.48;;;17.60;99.90;;;;;;4992555;28;20037;-72
2021/08/18 08:56:08;;;;;;;8.40;1.42;;;17.80;99.90;;;;;;4992362;28;20348;-73
2021/08/18 08:58:34;;;;;;;7.50;1.50;;;18.40;99.90;;;;;;4992564;28;20100;-73
2021/08/18 09:01:01;;;;;;;5.18;1.27;;;18.50;99.90;;;;;;4992700;28;20038;-73
2021/08/18 09:03:27;;;;;;;6.80;1.45;;;18.40;99.90;;;;;;4991892;28;20026;-72
2021/08/18 09:06:02;;;;;;;4.68;1.52;;;18.20;99.90;;;;;;4992694;28;20378;-72
2021/08/18 09:08:28;;;;;;;9.18;1.58;;;17.90;99.90;;;;;;4991011;28;20026;-73
2021/08/18 09:11:05;;;;;;;3.22;1.08;;;17.90;99.90;;;;;;4991983;28;20069;-73
2021/08/18 09:13:41;;;;;;;5.28;0.93;;;18.30;99.90;;;;;;4991709;28;20034;-72
2021/08/18 09:16:07;;;;;;;6.43;1.33;;;18.40;99.90;;;;;;5007247;28;20100;-72
2021/08/18 09:18:39;;;;;;;5.60;1.45;;;18.30;99.90;;;;;;4992486;28;20038;-72
2021/08/18 09:21:34;;;;;;;6.20;1.20;;;18.10;99.90;;;;;;4992461;28;20109;-71
2021/08/18 09:24:12;;;;;;;6.38;1.20;;;17.90;99.90;;;;;;4990302;28;20314;-72
2021/08/18 09:26:58;;;;;;;2.72;1.23;;;17.80;99.90;;;;;;4991261;28;20418;-72
2021/08/18 09:29:25;;;;;;;9.57;1.92;;;17.70;99.90;;;;;;4991136;28;20038;-72
2021/08/18 09:31:51;;;;;;;6.80;1.52;;;17.70;99.90;;;;;;4991413;28;20022;-72
2021/08/18 09:34:17;;;;;;;7.85;1.48;;;17.60;99.90;;;;;;4991385;28;20034;-72
2021/08/18 09:36:42;;;;;;;10.10;2.40;;;17.60;99.90;;;;;;4991923;28;20026;-73
2021/08/18 09:39:22;;;;;;;8.02;1.73;;;17.50;99.90;;;;;;4991247;28;20232;-72
2021/08/18 09:41:49;;;;;;;7.50;1.63;;;17.50;99.90;;;;;;4991846;28;20026;-72
2021/08/18 09:44:15;;;;;;;9.07;1.50;;;17.50;99.90;;;;;;4992015;28;20554;-72
2021/08/18 09:46:41;;;;;;;6.60;1.42;;;17.50;99.90;;;;;;4992197;28;20074;-71
2021/08/18 09:49:10;;;;;;;4.13;1.15;;;17.70;99.90;;;;;;4991459;28;20038;-72
2021/08/18 09:51:38;;;;;;;4.30;1.33;;;17.70;99.90;;;;;;4992082;28;20346;-71
2021/08/18 09:54:14;;;;;;;4.80;1.17;;;17.80;99.90;;;;;;4991368;28;20353;-72
2021/08/18 09:56:46;;;;;;;7.05;1.25;;;17.90;99.90;;;;;;4991863;28;20057;-73
2021/08/18 09:59:12;;;;;;;5.47;1.30;;;17.90;99.90;;;;;;4991040;28;20077;-72
2021/08/18 10:01:39;;;;;;;6.38;1.50;;;17.80;99.90;;;;;;4991062;28;20228;-72
2021/08/18 10:04:05;;;;;;;11.13;1.88;;;17.70;99.90;;;;;;4989730;28;20060;-71
2021/08/18 10:06:32;;;;;;;8.52;1.90;;;17.60;99.90;;;;;;4991813;28;20062;-72
2021/08/18 10:08:58;;;;;;;6.22;2.20;;;17.60;99.90;;;;;;4991826;28;20283;-71
2021/08/18 10:11:26;;;;;;;7.70;1.50;;;17.60;99.90;;;;;;4989739;28;20064;-72
2021/08/18 10:13:53;;;;;;;15.15;2.47;;;17.60;99.90;;;;;;4991004;28;20033;-71
2021/08/18 10:16:20;;;;;;;10.13;2.13;;;17.50;99.90;;;;;;4990980;28;20406;-72
2021/08/18 10:18:48;;;;;;;12.75;2.30;;;17.50;99.90;;;;;;4990965;28;20034;-72
2021/08/18 10:21:18;;;;;;;8.95;2.53;;;17.40;99.90;;;;;;4991207;28;20030;-72
2021/08/18 10:24:03;;;;;;;13.73;2.88;;;17.20;99.90;;;;;;4989228;28;20034;-72
2021/08/18 10:26:34;;;;;;;10.48;2.30;;;17.10;99.90;;;;;;4991142;28;20030;-72
2021/08/18 10:29:15;;;;;;;11.95;2.45;;;17.10;99.90;;;;;;4991719;28;20038;-72
2021/08/18 10:31:41;;;;;;;8.65;2.55;;;17.10;99.90;;;;;;5005405;28;20035;-74
2021/08/18 10:34:37;;;;;;;10.50;2.45;;;17.00;99.90;;;;;;4992617;28;20387;-72
2021/08/18 10:37:05;;;;;;;9.00;1.83;;;16.70;99.90;;;;;;4989550;28;20042;-72
2021/08/18 10:39:40;;;;;;;7.87;2.30;;;16.50;99.90;;;;;;4992579;28;20029;-73
2021/08/18 10:42:14;;;;;;;10.45;2.05;;;16.50;99.90;;;;;;4993738;28;20027;-74
2021/08/18 10:44:45;;;;;;;11.02;2.00;;;16.60;99.90;;;;;;4996110;28;20057;-73
2021/08/18 10:47:29;;;;;;;11.77;2.45;;;16.60;99.90;;;;;;4994911;28;20065;-73
2021/08/18 10:50:23;;;;;;;12.90;2.70;;;16.70;99.90;;;;;;4996068;28;20105;-73
2021/08/18 10:52:53;;;;;;;10.07;2.58;;;16.70;99.90;;;;;;4996171;28;20143;-73
2021/08/18 10:55:25;;;;;;;15.55;3.10;;;16.90;99.90;;;;;;4995501;28;20037;-71
2021/08/18 10:58:07;;;;;;;8.98;2.55;;;17.10;99.90;;;;;;4995876;28;20121;-73
2021/08/18 11:00:37;;;;;;;9.20;2.83;;;17.10;99.90;;;;;;4995828;28;20328;-71
2021/08/18 11:03:06;;;;;;;9.50;2.40;;;17.00;99.90;;;;;;4995985;28;20280;-70
2021/08/18 11:05:38;;;;;;;7.20;2.35;;;17.00;99.90;;;;;;4993932;28;20054;-71
2021/08/18 11:08:14;;;;;;;7.00;2.35;;;17.10;99.90;;;;;;4995768;28;20034;-73
2021/08/18 11:10:43;;;;;;;12.30;2.85;;;16.90;99.90;;;;;;4995346;28;20073;-73
2021/08/18 11:13:13;;;;;;;6.43;2.55;;;16.80;99.90;;;;;;4995502;28;20228;-74
2021/08/18 11:15:42;;;;;;;8.88;2.45;;;16.80;99.90;;;;;;4995239;28;20122;-73
2021/08/18 11:18:09;;;;;;;8.57;2.63;;;16.80;99.90;;;;;;4995779;28;20220;-73
2021/08/18 11:20:36;;;;;;;10.43;3.10;;;16.80;99.90;;;;;;4995792;28;20035;-73
2021/08/18 11:23:07;;;;;;;8.85;2.42;;;16.90;99.90;;;;;;4995411;28;20343;-74
2021/08/18 11:25:42;;;;;;;10.70;2.80;;;16.90;99.90;;;;;;4995099;28;20241;-73
2021/08/18 11:28:08;;;;;;;13.85;3.67;;;16.80;99.90;;;;;;4993578;28;20057;-73
2021/08/18 11:30:34;;;;;;;13.65;4.55;;;16.70;99.90;;;;;;4995677;28;20340;-73
2021/08/18 11:33:19;;;;;;;11.02;3.90;;;16.50;99.90;;;;;;4995232;28;20031;-72
2021/08/18 11:35:45;;;;;;;11.52;3.97;;;16.50;99.90;;;;;;4995577;28;20034;-72
2021/08/18 11:38:11;;;;;;;14.57;3.92;;;16.50;99.90;;;;;;4994514;28;20145;-72
2021/08/18 11:40:38;;;;;;;15.43;4.35;;;16.50;99.90;;;;;;4995178;28;20058;-71
2021/08/18 11:43:04;;;;;;;11.80;4.63;;;16.50;99.90;;;;;;4994442;28;20026;-71
2021/08/18 11:45:34;;;;;;;15.43;4.70;;;16.60;99.90;;;;;;4993684;28;20026;-73
2021/08/18 11:48:11;;;;;;;15.20;4.65;;;16.60;99.90;;;;;;4993622;28;20137;-72
2021/08/18 11:50:38;;;;;;;15.20;5.35;;;16.60;99.90;;;;;;4994837;28;20364;-73
2021/08/18 11:53:07;;;;;;;22.20;4.78;;;16.70;99.90;;;;;;4994333;28;20038;-73
2021/08/18 11:55:34;;;;;;;15.18;3.63;;;16.70;99.90;;;;;;4994236;28;20023;-72
2021/08/18 11:58:05;;;;;;;16.35;4.43;;;16.70;99.90;;;;;;4993985;28;20029;-73
2021/08/18 12:00:35;;;;;;;15.82;3.90;;;16.70;99.90;;;;;;5009632;28;20365;-73
2021/08/18 12:03:02;;;;;;;14.20;3.58;;;16.70;99.90;;;;;;4994929;28;20101;-73
2021/08/18 12:05:37;;;;;;;14.85;4.00;;;16.80;99.90;;;;;;4992849;28;20034;-73
2021/08/18 12:08:17;;;;;;;13.35;3.92;;;16.70;99.90;;;;;;4992470;28;20042;-73
2021/08/18 12:10:47;;;;;;;9.77;3.13;;;16.60;99.90;;;;;;4994242;28;20088;-73
2021/08/18 12:13:16;;;;;;;7.65;2.78;;;16.60;99.90;;;;;;4994770;28;20373;-73
2021/08/18 12:15:45;;;;;;;9.18;3.47;;;16.60;99.90;;;;;;4993793;28;20034;-73
2021/08/18 12:18:27;;;;;;;7.35;2.72;;;16.60;99.90;;;;;;4994143;28;20224;-74
2021/08/18 12:20:53;;;;;;;11.07;3.33;;;16.50;99.90;;;;;;4994295;28;20310;-74
2021/08/18 12:23:25;;;;;;;12.18;2.47;;;16.50;99.90;;;;;;4994423;28;20061;-74
2021/08/18 12:25:51;;;;;;;10.25;1.92;;;16.40;99.90;;;;;;4994217;28;20323;-73
2021/08/18 12:28:19;;;;;;;6.38;2.00;;;16.30;99.90;;;;;;4994350;28;20022;-74
2021/08/18 12:31:02;;;;;;;10.55;2.80;;;16.20;99.90;;;;;;4993349;28;20038;-74
2021/08/18 12:33:28;;;;;;;10.07;3.08;;;16.20;99.90;;;;;;4993817;28;20027;-74
2021/08/18 12:36:11;;;;;;;12.02;2.88;;;16.10;99.90;;;;;;4993821;28;20333;-74
2021/08/18 12:38:52;;;;;;;10.63;3.30;;;16.10;99.90;;;;;;5001633;28;20030;-74
2021/08/18 12:41:22;;;;;;;10.52;2.85;;;16.10;99.90;;;;;;4992679;28;20026;-74
2021/08/18 12:44:07;;;;;;;10.60;3.63;;;16.10;99.90;;;;;;4992748;28;20208;-74